createdAt,value
2018-12-27T00:02:17.250Z,25.20
2018-12-27T00:04:43.958Z,26.40
2018-12-27T00:07:10.685Z,24.20
2018-12-27T00:09:37.418Z,24.75
2018-12-27T00:12:04.129Z,24.35
2018-12-27T00:14:30.832Z,25.72
2018-12-27T00:16:57.552Z,25.85
2018-12-27T00:19:24.287Z,24.55
2018-12-27T00:21:51.092Z,24.60
2018-12-27T00:24:17.815Z,25.12
2018-12-27T00:26:44.541Z,24.32
2018-12-27T00:29:11.257Z,25.17
2018-12-27T00:31:37.975Z,26.87
2018-12-27T00:34:04.688Z,25.15
2018-12-27T00:39:36.806Z,22.10
2018-12-27T00:42:22.824Z,25.02
2018-12-27T00:45:09.136Z,24.40
2018-12-27T00:47:55.357Z,24.05
2018-12-27T00:50:22.307Z,23.75
2018-12-27T00:52:49.067Z,23.62
2018-12-27T00:55:15.779Z,24.35
2018-12-27T00:57:42.733Z,24.00
2018-12-27T01:00:09.464Z,22.90
2018-12-27T01:02:36.191Z,22.40
2018-12-27T01:05:02.903Z,24.18
2018-12-27T01:07:29.623Z,23.85
2018-12-27T01:09:56.347Z,23.22
2018-12-27T01:12:23.076Z,24.45
2018-12-27T01:14:50.024Z,24.23
2018-12-27T01:17:16.744Z,23.83
2018-12-27T01:19:43.447Z,24.63
2018-12-27T01:22:10.169Z,24.32
2018-12-27T01:24:36.879Z,24.12
2018-12-27T01:27:03.583Z,24.47
2018-12-27T01:29:30.283Z,24.20
2018-12-27T01:31:56.987Z,23.50
2018-12-27T01:34:23.704Z,23.10
2018-12-27T01:36:50.418Z,25.15
2018-12-27T01:39:17.233Z,25.45
2018-12-27T01:41:43.956Z,25.50
2018-12-27T01:44:10.661Z,24.60
2018-12-27T01:46:37.377Z,23.20
2018-12-27T01:49:04.089Z,25.75
2018-12-27T01:51:30.796Z,24.72
2018-12-27T01:53:57.506Z,25.37
2018-12-27T01:56:24.292Z,24.52
2018-12-27T01:58:51.259Z,24.45
2018-12-27T02:01:18.038Z,23.98
2018-12-27T02:03:44.778Z,25.00
2018-12-27T02:06:11.487Z,25.15
2018-12-27T02:08:38.516Z,24.85
2018-12-27T02:11:05.227Z,25.43
2018-12-27T02:13:31.947Z,27.05
2018-12-27T02:15:58.705Z,23.55
2018-12-27T02:18:25.441Z,27.10
2018-12-27T02:20:52.169Z,26.65
2018-12-27T02:23:18.900Z,25.57
2018-12-27T02:25:45.620Z,25.70
2018-12-27T02:28:12.318Z,25.77
2018-12-27T02:30:39.125Z,25.50
2018-12-27T02:33:05.842Z,25.05
2018-12-27T02:35:32.542Z,27.93
2018-12-27T02:37:59.255Z,25.92
2018-12-27T02:40:25.964Z,25.25
2018-12-27T02:42:52.685Z,24.23
2018-12-27T02:45:19.396Z,23.95
2018-12-27T02:47:46.102Z,23.62
2018-12-27T02:50:12.820Z,25.00
2018-12-27T02:52:39.521Z,25.97
2018-12-27T02:55:06.243Z,25.80
2018-12-27T02:57:33.197Z,23.38
2018-12-27T02:59:59.917Z,24.23
2018-12-27T03:02:26.628Z,23.65
2018-12-27T03:04:53.347Z,25.08
2018-12-27T03:07:20.071Z,23.83
2018-12-27T03:09:46.777Z,25.70
2018-12-27T03:12:13.493Z,24.20
2018-12-27T03:14:40.213Z,24.63
2018-12-27T03:17:06.945Z,24.80
2018-12-27T03:19:33.673Z,23.55
2018-12-27T03:22:00.387Z,23.98
2018-12-27T03:24:27.095Z,24.27
2018-12-27T03:26:53.819Z,24.23
2018-12-27T03:29:20.548Z,23.92
2018-12-27T03:31:47.265Z,24.35
2018-12-27T03:34:13.997Z,24.05
2018-12-27T03:36:40.716Z,24.00
2018-12-27T03:39:07.448Z,24.85
2018-12-27T03:41:34.175Z,23.62
2018-12-27T03:44:00.899Z,25.30
2018-12-27T03:46:27.618Z,24.43
2018-12-27T03:48:54.338Z,25.88
2018-12-27T03:51:21.047Z,23.87
2018-12-27T03:53:47.752Z,23.60
2018-12-27T03:56:14.479Z,23.30
2018-12-27T03:58:41.209Z,24.47
2018-12-27T04:01:07.924Z,25.00
2018-12-27T04:03:34.623Z,23.30
2018-12-27T04:06:01.346Z,23.65
2018-12-27T04:08:28.297Z,23.50
2018-12-27T04:10:55.012Z,23.10
2018-12-27T04:13:21.740Z,23.22
2018-12-27T04:15:48.472Z,23.30
2018-12-27T04:18:15.192Z,22.60
2018-12-27T04:20:41.961Z,23.42
2018-12-27T04:23:08.725Z,22.70
2018-12-27T04:25:35.556Z,22.95
2018-12-27T04:28:02.271Z,23.18
2018-12-27T04:30:29.535Z,23.77
2018-12-27T04:32:56.756Z,22.65
2018-12-27T04:35:23.977Z,22.52
2018-12-27T04:37:50.675Z,21.73
2018-12-27T04:40:17.396Z,24.23
2018-12-27T04:42:44.430Z,23.42
2018-12-27T04:45:11.185Z,22.32
2018-12-27T04:47:37.990Z,22.37
2018-12-27T04:50:04.799Z,23.42
2018-12-27T04:52:31.528Z,22.98
2018-12-27T04:54:58.375Z,22.20
2018-12-27T04:57:25.094Z,22.65
2018-12-27T04:59:51.805Z,20.43
2018-12-27T05:02:18.535Z,22.20
2018-12-27T05:04:45.245Z,21.82
2018-12-27T05:07:11.964Z,22.02
2018-12-27T05:09:38.689Z,21.90
2018-12-27T05:12:05.399Z,21.35
2018-12-27T05:14:32.111Z,23.40
2018-12-27T05:16:59.025Z,22.60
2018-12-27T05:19:25.784Z,22.05
2018-12-27T05:21:52.494Z,21.50
2018-12-27T05:24:19.218Z,22.25
2018-12-27T05:26:45.944Z,22.27
2018-12-27T05:29:12.664Z,21.85
2018-12-27T05:31:39.390Z,21.60
2018-12-27T05:34:06.096Z,21.93
2018-12-27T05:36:32.832Z,21.70
2018-12-27T05:38:59.567Z,20.75
2018-12-27T05:41:26.276Z,21.62
2018-12-27T05:43:52.983Z,21.48
2018-12-27T05:46:19.702Z,20.48
2018-12-27T05:48:46.399Z,19.70
2018-12-27T05:51:13.113Z,21.17
2018-12-27T05:53:39.828Z,20.70
2018-12-27T05:56:06.548Z,19.62
2018-12-27T05:58:33.256Z,20.62
2018-12-27T06:00:59.968Z,19.32
2018-12-27T06:03:26.695Z,21.10
2018-12-27T06:05:53.417Z,22.13
2018-12-27T06:08:20.128Z,20.62
2018-12-27T06:10:46.836Z,19.57
2018-12-27T06:13:13.583Z,19.82
2018-12-27T06:15:40.544Z,20.90
2018-12-27T06:18:07.259Z,20.65
2018-12-27T06:20:34.092Z,20.30
2018-12-27T06:23:00.875Z,20.97
2018-12-27T06:25:27.599Z,21.33
2018-12-27T06:27:54.304Z,21.00
2018-12-27T06:30:21.987Z,20.48
2018-12-27T06:32:48.727Z,19.92
2018-12-27T06:35:15.704Z,19.70
2018-12-27T06:37:42.430Z,20.68
2018-12-27T06:40:09.139Z,21.25
2018-12-27T06:42:35.856Z,25.60
2018-12-27T06:45:02.879Z,21.12
2018-12-27T06:47:29.594Z,21.80
2018-12-27T06:49:56.312Z,21.50
2018-12-27T06:52:23.014Z,21.57
2018-12-27T06:54:49.736Z,20.15
2018-12-27T06:57:16.431Z,18.17
2018-12-27T06:59:43.419Z,20.50
2018-12-27T07:02:10.121Z,20.50
2018-12-27T07:04:36.827Z,20.80
2018-12-27T07:07:03.539Z,20.82
2018-12-27T07:09:30.236Z,19.37
2018-12-27T07:11:56.942Z,19.73
2018-12-27T07:14:23.660Z,20.35
2018-12-27T07:16:50.421Z,18.32
2018-12-27T07:19:17.151Z,20.45
2018-12-27T07:21:44.108Z,20.30
2018-12-27T07:24:10.833Z,21.73
2018-12-27T07:26:37.544Z,21.37
2018-12-27T07:29:04.264Z,21.15
2018-12-27T07:31:31.093Z,21.05
2018-12-27T07:33:57.795Z,19.17
2018-12-27T07:36:24.792Z,20.20
2018-12-27T07:38:51.516Z,19.98
2018-12-27T07:41:18.219Z,19.27
2018-12-27T07:43:44.960Z,20.05
2018-12-27T07:46:11.676Z,20.43
2018-12-27T07:48:38.399Z,20.75
2018-12-27T07:51:05.143Z,19.87
2018-12-27T07:53:31.857Z,19.17
2018-12-27T07:55:58.571Z,19.85
2018-12-27T07:58:25.281Z,20.27
2018-12-27T08:00:52.035Z,21.85
2018-12-27T08:03:18.734Z,21.10
2018-12-27T08:05:45.805Z,21.73
2018-12-27T08:08:12.627Z,21.90
2018-12-27T08:10:39.404Z,20.17
2018-12-27T08:13:06.121Z,21.25
2018-12-27T08:15:32.841Z,20.75
2018-12-27T08:17:59.655Z,21.50
2018-12-27T08:20:26.387Z,19.98
2018-12-27T08:22:53.118Z,21.15
2018-12-27T08:25:20.090Z,20.85
2018-12-27T08:27:46.800Z,19.25
2018-12-27T08:30:19.126Z,20.17
2018-12-27T08:32:45.842Z,19.82
2018-12-27T08:35:12.542Z,19.07
2018-12-27T08:37:39.264Z,20.32
2018-12-27T08:40:06.084Z,20.10
2018-12-27T08:42:32.799Z,20.62
2018-12-27T08:44:59.632Z,20.55
2018-12-27T08:47:26.364Z,21.00
2018-12-27T08:49:53.084Z,21.60
2018-12-27T08:52:19.793Z,20.08
2018-12-27T08:54:46.488Z,20.20
2018-12-27T08:57:13.199Z,20.68
2018-12-27T08:59:39.919Z,20.02
2018-12-27T09:02:06.649Z,21.23
2018-12-27T09:04:33.369Z,19.52
2018-12-27T09:07:00.085Z,20.32
2018-12-27T09:09:26.800Z,18.60
2018-12-27T09:11:53.508Z,20.20
2018-12-27T09:14:20.232Z,19.40
2018-12-27T09:16:46.943Z,19.23
2018-12-27T09:19:13.664Z,19.32
2018-12-27T09:21:40.379Z,18.67
2018-12-27T09:24:07.147Z,17.10
2018-12-27T09:26:33.932Z,18.70
2018-12-27T09:29:00.708Z,18.95
2018-12-27T09:31:27.477Z,19.02
2018-12-27T09:33:54.200Z,16.95
2018-12-27T09:36:21.084Z,18.17
2018-12-27T09:38:47.817Z,16.87
2018-12-27T09:41:14.538Z,17.00
2018-12-27T09:43:41.272Z,17.48
2018-12-27T09:46:07.991Z,17.10
2018-12-27T09:48:34.704Z,16.80
2018-12-27T09:51:01.508Z,17.17
2018-12-27T09:53:28.225Z,16.87
2018-12-27T09:55:54.938Z,16.55
2018-12-27T09:58:21.671Z,16.67
2018-12-27T10:00:48.363Z,17.30
2018-12-27T10:03:15.087Z,16.25
2018-12-27T10:05:41.899Z,17.15
2018-12-27T10:08:08.634Z,16.70
2018-12-27T10:10:35.355Z,16.75
2018-12-27T10:13:02.083Z,16.97
2018-12-27T10:15:30.063Z,16.02
2018-12-27T10:17:56.947Z,19.70
2018-12-27T10:20:23.777Z,17.98
2018-12-27T10:22:50.484Z,19.77
2018-12-27T10:25:17.220Z,19.07
2018-12-27T10:27:43.948Z,16.87
2018-12-27T10:30:12.428Z,16.17
2018-12-27T10:32:39.271Z,16.60
2018-12-27T10:35:06.315Z,15.55
2018-12-27T10:37:33.044Z,16.07
2018-12-27T10:39:59.865Z,15.93
2018-12-27T10:42:26.606Z,16.17
2018-12-27T10:44:53.347Z,16.00
2018-12-27T10:47:20.097Z,16.17
2018-12-27T10:49:46.828Z,16.70
2018-12-27T10:52:13.553Z,16.82
2018-12-27T10:54:40.369Z,15.58
2018-12-27T10:57:07.110Z,15.72
2018-12-27T10:59:33.842Z,15.78
2018-12-27T11:02:00.557Z,15.18
2018-12-27T11:04:27.273Z,14.38
2018-12-27T11:06:55.000Z,15.28
2018-12-27T11:09:21.999Z,14.53
2018-12-27T11:11:48.792Z,14.43
2018-12-27T11:14:15.772Z,14.93
2018-12-27T11:16:42.532Z,14.23
2018-12-27T11:19:09.368Z,17.35
2018-12-27T11:21:36.349Z,15.43
2018-12-27T11:24:03.183Z,15.95
2018-12-27T11:26:30.019Z,15.20
2018-12-27T11:28:56.744Z,15.20
2018-12-27T11:31:23.481Z,15.03
2018-12-27T11:33:50.208Z,14.33
2018-12-27T11:36:17.472Z,14.55
2018-12-27T11:38:44.360Z,14.07
2018-12-27T11:41:11.076Z,14.73
2018-12-27T11:43:37.811Z,14.40
2018-12-27T11:46:04.543Z,12.90
2018-12-27T11:48:31.273Z,12.87
2018-12-27T11:50:58.000Z,13.13
2018-12-27T11:53:24.721Z,12.00
2018-12-27T11:55:51.439Z,12.47
2018-12-27T11:58:18.191Z,13.77
2018-12-27T12:00:44.927Z,13.35
2018-12-27T12:03:11.757Z,12.93
2018-12-27T12:05:38.739Z,12.80
2018-12-27T12:08:05.585Z,14.40
2018-12-27T12:10:32.300Z,13.57
2018-12-27T12:12:59.041Z,11.77
2018-12-27T12:15:25.772Z,12.57
2018-12-27T12:17:52.555Z,12.70
2018-12-27T12:20:19.428Z,13.00
2018-12-27T12:22:46.152Z,13.20
2018-12-27T12:25:12.865Z,12.50
2018-12-27T12:27:39.689Z,12.27
2018-12-27T12:30:06.790Z,11.80
2018-12-27T12:32:33.508Z,12.93
2018-12-27T12:35:00.230Z,12.27
2018-12-27T12:37:27.359Z,12.23
2018-12-27T12:39:54.077Z,14.00
2018-12-27T12:42:32.426Z,12.30
2018-12-27T12:44:49.437Z,12.10
2018-12-27T12:47:16.159Z,12.53
2018-12-27T12:49:43.079Z,14.13
2018-12-27T12:52:09.795Z,12.30
2018-12-27T12:54:36.523Z,12.90
2018-12-27T12:57:03.327Z,17.70
2018-12-27T12:59:30.050Z,13.93
2018-12-27T13:01:56.756Z,12.23
2018-12-27T13:04:23.495Z,11.83
2018-12-27T13:06:50.208Z,11.77
2018-12-27T13:09:17.180Z,11.80
2018-12-27T13:11:43.904Z,11.53
2018-12-27T13:14:10.632Z,12.03
2018-12-27T13:16:37.371Z,10.80
2018-12-27T13:19:04.096Z,11.33
2018-12-27T13:21:31.068Z,11.23
2018-12-27T13:23:57.804Z,11.00
2018-12-27T13:26:24.634Z,11.43
2018-12-27T13:28:51.349Z,11.43
2018-12-27T13:31:18.092Z,11.90
2018-12-27T13:33:45.060Z,10.80
2018-12-27T13:36:11.782Z,11.47
2018-12-27T13:38:38.497Z,12.90
2018-12-27T13:41:05.229Z,11.40
2018-12-27T13:43:31.947Z,12.27
2018-12-27T13:45:58.676Z,11.60
2018-12-27T13:48:25.400Z,12.50
2018-12-27T13:50:52.108Z,11.43
2018-12-27T13:53:19.072Z,11.17
2018-12-27T13:55:45.788Z,11.10
2018-12-27T13:58:12.505Z,11.97
2018-12-27T14:00:39.224Z,11.40
2018-12-27T14:03:05.957Z,11.73
2018-12-27T14:05:32.703Z,11.47
2018-12-27T14:07:59.696Z,11.20
2018-12-27T14:10:26.413Z,10.57
2018-12-27T14:12:53.139Z,11.70
2018-12-27T14:15:19.960Z,11.17
2018-12-27T14:17:46.687Z,11.60
2018-12-27T14:20:13.395Z,10.87
2018-12-27T14:22:40.124Z,11.30
2018-12-27T14:25:06.937Z,11.53
2018-12-27T14:27:33.667Z,11.17
2018-12-27T14:30:00.399Z,12.60
2018-12-27T14:32:27.124Z,29.20
2018-12-27T14:34:53.874Z,20.87
2018-12-27T14:37:20.584Z,22.60
2018-12-27T14:39:47.407Z,13.70
2018-12-27T14:42:14.148Z,16.60
2018-12-27T14:44:40.859Z,13.60
2018-12-27T14:47:07.588Z,13.30
2018-12-27T14:49:34.306Z,13.37
2018-12-27T14:52:01.023Z,13.53
2018-12-27T14:54:27.742Z,13.90
2018-12-27T14:56:54.471Z,13.90
2018-12-27T14:59:21.435Z,14.20
2018-12-27T15:01:48.156Z,14.10
2018-12-27T15:04:14.880Z,14.77
2018-12-27T15:06:47.244Z,14.37
2018-12-27T15:09:10.212Z,15.67
2018-12-27T15:11:36.953Z,17.40
2018-12-27T15:14:03.674Z,18.93
2018-12-27T15:16:30.395Z,17.73
2018-12-27T15:18:57.131Z,15.33
2018-12-27T15:21:23.867Z,15.13
2018-12-27T15:23:50.588Z,14.53
2018-12-27T15:26:17.319Z,14.83
2018-12-27T15:28:44.043Z,15.83
2018-12-27T15:31:10.782Z,14.47
2018-12-27T15:33:37.600Z,13.93
2018-12-27T15:36:04.423Z,14.33
2018-12-27T15:38:31.167Z,13.73
2018-12-27T15:40:57.908Z,13.80
2018-12-27T15:43:24.654Z,13.33
2018-12-27T15:45:51.371Z,12.87
2018-12-27T15:48:18.100Z,12.87
2018-12-27T15:50:44.819Z,13.58
2018-12-27T15:53:11.528Z,13.30
2018-12-27T15:55:38.239Z,13.40
2018-12-27T15:58:04.971Z,14.20
2018-12-27T16:00:31.700Z,13.25
2018-12-27T16:02:58.436Z,13.40
2018-12-27T16:05:25.155Z,13.27
2018-12-27T16:07:52.139Z,14.38
2018-12-27T16:10:18.865Z,14.33
2018-12-27T16:12:45.592Z,13.55
2018-12-27T16:15:12.321Z,14.98
2018-12-27T16:17:39.043Z,15.30
2018-12-27T16:20:05.970Z,15.83
2018-12-27T16:22:32.949Z,15.78
2018-12-27T16:24:59.671Z,15.90
2018-12-27T16:27:26.392Z,17.12
2018-12-27T16:29:53.112Z,16.90
2018-12-27T16:32:19.829Z,16.00
2018-12-27T16:34:46.552Z,16.57
2018-12-27T16:37:13.305Z,16.37
2018-12-27T16:39:40.227Z,19.87
2018-12-27T16:42:07.060Z,17.15
2018-12-27T16:44:33.871Z,18.27
2018-12-27T16:47:00.624Z,21.23
2018-12-27T16:49:27.423Z,22.10
2018-12-27T16:51:54.167Z,22.05
2018-12-27T16:54:20.924Z,20.77
2018-12-27T16:56:47.635Z,21.10
2018-12-27T16:59:14.394Z,22.93
2018-12-27T17:01:41.108Z,22.13
2018-12-27T17:04:07.839Z,20.10
2018-12-27T17:06:34.557Z,22.27
2018-12-27T17:09:01.295Z,20.90
2018-12-27T17:11:28.011Z,22.27
2018-12-27T17:13:54.741Z,19.35
2018-12-27T17:16:21.439Z,19.27
2018-12-27T17:18:48.164Z,19.67
2018-12-27T17:21:14.887Z,17.73
2018-12-27T17:23:41.611Z,19.23
2018-12-27T17:26:08.339Z,17.87
2018-12-27T17:28:35.061Z,19.95
2018-12-27T17:31:01.787Z,19.30
2018-12-27T17:33:28.508Z,19.25
2018-12-27T17:35:55.244Z,18.70
2018-12-27T17:38:22.003Z,19.90
2018-12-27T17:40:48.996Z,18.67
2018-12-27T17:43:15.720Z,18.55
2018-12-27T17:45:42.473Z,19.07
2018-12-27T17:48:09.256Z,17.87
2018-12-27T17:50:35.977Z,18.50
2018-12-27T17:53:02.798Z,21.48
2018-12-27T17:55:29.517Z,20.10
2018-12-27T17:57:56.228Z,23.20
2018-12-27T18:00:22.978Z,19.75
2018-12-27T18:02:49.700Z,17.13
2018-12-27T18:05:16.709Z,16.53
2018-12-27T18:07:43.524Z,17.15
2018-12-27T18:10:10.491Z,18.47
2018-12-27T18:12:37.221Z,20.83
2018-12-27T18:15:04.833Z,20.90
2018-12-27T18:17:31.675Z,20.70
2018-12-27T18:19:58.427Z,20.97
2018-12-27T18:22:25.152Z,20.80
2018-12-27T18:24:51.971Z,20.70
2018-12-27T18:27:18.697Z,18.97
2018-12-27T18:29:45.691Z,17.67
2018-12-27T18:32:12.416Z,16.82
2018-12-27T18:34:39.149Z,17.47
2018-12-27T18:37:05.867Z,18.77
2018-12-27T18:39:32.640Z,18.67
2018-12-27T18:41:59.366Z,17.92
2018-12-27T18:44:26.112Z,17.90
2018-12-27T18:46:52.836Z,18.90
2018-12-27T18:49:20.713Z,17.42
2018-12-27T18:51:47.602Z,18.90
2018-12-27T18:54:14.332Z,18.67
2018-12-27T18:56:41.063Z,18.60
2018-12-27T18:59:07.783Z,17.75
2018-12-27T19:01:34.501Z,18.70
2018-12-27T19:04:01.423Z,18.40
2018-12-27T19:06:28.414Z,19.25
2018-12-27T19:08:55.175Z,17.30
2018-12-27T19:11:59.656Z,17.50
2018-12-27T19:14:26.388Z,19.40
2018-12-27T19:16:53.124Z,22.60
2018-12-27T19:19:19.884Z,22.67
2018-12-27T19:22:03.453Z,24.07
2018-12-27T19:24:30.304Z,22.60
2018-12-27T19:26:57.024Z,20.12
2018-12-27T19:29:24.009Z,19.60
2018-12-27T19:31:50.732Z,21.48
2018-12-27T19:34:17.711Z,18.02
2018-12-27T19:36:44.436Z,19.65
2018-12-27T19:39:11.160Z,32.70
2018-12-27T19:41:37.884Z,29.02
2018-12-27T19:44:04.611Z,29.63
2018-12-27T19:46:31.332Z,25.48
2018-12-27T19:48:58.053Z,27.25
2018-12-27T19:51:24.786Z,25.90
2018-12-27T19:53:51.515Z,22.45
2018-12-27T19:56:18.231Z,19.42
2018-12-27T19:58:45.072Z,20.85
2018-12-27T20:01:11.900Z,20.97
2018-12-27T20:03:38.633Z,21.93
2018-12-27T20:06:05.359Z,19.98
2018-12-27T20:08:32.081Z,21.25
2018-12-27T20:10:58.818Z,22.40
2018-12-27T20:13:25.543Z,22.02
2018-12-27T20:15:52.275Z,22.80
2018-12-27T20:18:19.012Z,22.05
2018-12-27T20:20:45.749Z,22.42
2018-12-27T20:23:12.469Z,23.50
2018-12-27T20:25:39.208Z,25.20
2018-12-27T20:28:05.987Z,25.23
2018-12-27T20:30:32.769Z,25.60
2018-12-27T20:32:59.512Z,24.32
2018-12-27T20:35:26.241Z,24.95
2018-12-27T20:37:52.987Z,24.87
2018-12-27T20:40:19.700Z,25.10
2018-12-27T20:42:46.417Z,24.23
2018-12-27T20:45:13.136Z,25.02
2018-12-27T20:47:40.125Z,23.90
2018-12-27T20:50:06.949Z,24.45
2018-12-27T20:52:33.768Z,25.62
2018-12-27T20:55:00.480Z,24.63
2018-12-27T20:57:27.443Z,24.85
2018-12-27T20:59:54.176Z,25.82
2018-12-27T21:02:21.008Z,24.70
2018-12-27T21:04:47.730Z,24.32
2018-12-27T21:07:14.448Z,24.37
2018-12-27T21:09:41.515Z,25.15
2018-12-27T21:12:08.328Z,24.12
2018-12-27T21:14:35.065Z,24.02
2018-12-27T21:17:01.801Z,24.65
2018-12-27T21:19:28.631Z,23.27
2018-12-27T21:21:55.351Z,22.73
2018-12-27T21:24:22.188Z,22.40
2018-12-27T21:26:49.197Z,25.05
2018-12-27T21:29:15.923Z,23.80
2018-12-27T21:31:42.741Z,23.12
2018-12-27T21:34:09.466Z,24.55
2018-12-27T21:36:36.215Z,24.85
2018-12-27T21:39:05.547Z,24.55
2018-12-27T21:41:32.287Z,24.75
2018-12-27T21:43:59.011Z,25.17
2018-12-27T21:46:25.730Z,25.30
2018-12-27T21:48:52.687Z,25.17
2018-12-27T21:51:19.404Z,23.80
2018-12-27T21:53:46.145Z,24.77
2018-12-27T21:56:12.865Z,25.17
2018-12-27T21:58:39.580Z,24.37
2018-12-27T22:01:06.287Z,24.92
2018-12-27T22:03:33.015Z,24.47
2018-12-27T22:05:59.745Z,26.33
2018-12-27T22:08:28.601Z,25.15
2018-12-27T22:10:55.109Z,25.12
2018-12-27T22:13:22.091Z,23.85
2018-12-27T22:15:48.808Z,25.68
2018-12-27T22:18:15.528Z,25.62
2018-12-27T22:20:42.240Z,25.15
2018-12-27T22:23:09.060Z,27.07
2018-12-27T22:25:35.790Z,24.77
2018-12-27T22:28:02.503Z,25.32
2018-12-27T22:30:29.220Z,26.80
2018-12-27T22:32:55.947Z,26.77
2018-12-27T22:35:22.697Z,27.77
2018-12-27T22:37:49.431Z,29.45
2018-12-27T22:40:16.161Z,31.45
2018-12-27T22:42:42.881Z,36.77
2018-12-27T22:45:09.835Z,38.08
2018-12-27T22:47:36.613Z,32.65
2018-12-27T22:50:04.057Z,39.98
2018-12-27T22:52:30.787Z,39.55
2018-12-27T22:54:57.499Z,45.78
2018-12-27T22:57:24.253Z,34.00
2018-12-27T22:59:50.989Z,31.77
2018-12-27T23:02:17.811Z,30.88
2018-12-27T23:04:44.791Z,32.30
2018-12-27T23:07:11.545Z,29.77
2018-12-27T23:09:38.271Z,29.10
2018-12-27T23:12:04.999Z,28.90
2018-12-27T23:14:31.702Z,26.50
2018-12-27T23:16:58.432Z,26.68
2018-12-27T23:19:25.259Z,26.42
2018-12-27T23:21:51.975Z,25.88
2018-12-27T23:24:18.701Z,25.50
2018-12-27T23:26:45.436Z,26.52
2018-12-27T23:29:12.251Z,25.80
2018-12-27T23:31:38.977Z,25.32
2018-12-27T23:34:05.719Z,27.30
2018-12-27T23:36:32.447Z,28.73
2018-12-27T23:38:59.164Z,28.02
2018-12-27T23:41:25.919Z,28.50
2018-12-27T23:43:52.887Z,27.27
2018-12-27T23:46:19.597Z,26.73
2018-12-27T23:48:46.316Z,29.70
2018-12-27T23:51:13.031Z,27.07
2018-12-27T23:53:39.755Z,27.13
2018-12-27T23:56:06.464Z,25.88
2018-12-27T23:58:33.200Z,26.40
